createdAt,value
2018-06-11T00:02:21.758Z,76.70
2018-06-11T00:07:18.981Z,75.60
2018-06-11T00:09:47.755Z,75.50
2018-06-11T00:12:16.549Z,75.10
2018-06-11T00:14:45.300Z,75.00
2018-06-11T00:17:14.069Z,74.70
2018-06-11T00:22:11.330Z,75.00
2018-06-11T00:24:40.104Z,74.30
2018-06-11T00:30:05.845Z,73.30
2018-06-11T00:32:34.606Z,73.40
2018-06-11T00:35:03.352Z,73.10
2018-06-11T00:37:32.117Z,73.10
2018-06-11T00:40:00.884Z,73.10
2018-06-11T00:42:29.772Z,73.10
2018-06-11T00:44:58.540Z,74.20
2018-06-11T00:47:27.282Z,74.20
2018-06-11T00:52:24.573Z,74.20
2018-06-11T00:54:53.334Z,74.20
2018-06-11T00:57:22.085Z,74.60
2018-06-11T00:59:50.834Z,74.90
2018-06-11T01:02:19.592Z,75.70
2018-06-11T01:04:48.337Z,75.30
2018-06-11T01:07:17.081Z,75.20
2018-06-11T01:12:14.272Z,74.30
2018-06-11T01:14:43.129Z,73.20
2018-06-11T01:17:11.868Z,73.10
2018-06-11T01:19:40.633Z,72.90
2018-06-11T01:22:09.499Z,72.40
2018-06-11T01:24:38.281Z,71.70
2018-06-11T01:27:07.028Z,72.20
2018-06-11T01:29:35.782Z,71.40
2018-06-11T01:32:04.595Z,71.50
2018-06-11T01:34:33.352Z,71.60
2018-06-11T01:37:02.113Z,71.70
2018-06-11T01:39:30.860Z,71.60
2018-06-11T01:41:59.617Z,71.50
2018-06-11T01:44:28.377Z,71.30
2018-06-11T01:46:57.123Z,71.60
2018-06-11T01:49:25.948Z,70.90
2018-06-11T01:51:54.701Z,70.40
2018-06-11T01:54:23.479Z,70.30
2018-06-11T01:56:52.225Z,70.10
2018-06-11T01:59:20.989Z,70.20
2018-06-11T02:01:49.728Z,69.50
2018-06-11T02:04:18.485Z,69.60
2018-06-11T02:06:47.248Z,69.40
2018-06-11T02:09:16.028Z,69.10
2018-06-11T02:11:44.753Z,70.00
2018-06-11T02:14:13.514Z,69.50
2018-06-11T02:16:42.273Z,68.60
2018-06-11T02:19:11.066Z,69.00
2018-06-11T02:21:39.801Z,69.40
2018-06-11T02:24:08.564Z,68.90
2018-06-11T02:26:37.313Z,69.50
2018-06-11T02:29:06.081Z,68.80
2018-06-11T02:34:03.345Z,68.50
2018-06-11T02:39:00.605Z,68.80
2018-06-11T02:41:29.365Z,68.50
2018-06-11T02:43:58.301Z,68.50
2018-06-11T02:48:55.545Z,69.10
2018-06-11T02:51:24.332Z,68.80
2018-06-11T02:53:53.121Z,68.60
2018-06-11T02:56:21.876Z,69.20
2018-06-11T02:58:50.629Z,68.90
2018-06-11T03:01:19.385Z,69.20
2018-06-11T03:03:48.130Z,69.40
2018-06-11T03:06:16.890Z,68.90
2018-06-11T03:11:14.372Z,68.60
2018-06-11T03:13:43.150Z,69.20
2018-06-11T03:16:11.877Z,69.40
2018-06-11T03:18:40.673Z,69.40
2018-06-11T03:21:09.449Z,69.50
2018-06-11T03:23:38.239Z,69.40
2018-06-11T03:26:07.031Z,69.40
2018-06-11T03:28:35.773Z,69.50
2018-06-11T03:33:33.018Z,69.20
2018-06-11T03:36:01.775Z,69.20
2018-06-11T03:38:30.524Z,69.40
2018-06-11T03:43:27.720Z,70.00
2018-06-11T03:45:56.476Z,69.50
2018-06-11T03:48:25.254Z,70.70
2018-06-11T03:50:54.019Z,69.30
2018-06-11T03:53:22.772Z,69.70
2018-06-11T03:55:51.535Z,69.80
2018-06-11T03:58:20.293Z,70.00
2018-06-11T04:00:49.150Z,70.20
2018-06-11T04:03:17.869Z,70.40
2018-06-11T04:05:46.617Z,70.80
2018-06-11T04:08:15.400Z,71.30
2018-06-11T04:10:44.218Z,71.90
2018-06-11T04:15:41.414Z,71.60
2018-06-11T04:18:10.223Z,71.10
2018-06-11T04:20:38.965Z,71.60
2018-06-11T04:23:07.785Z,70.90
2018-06-11T04:28:05.093Z,71.10
2018-06-11T04:30:33.895Z,70.70
2018-06-11T04:35:31.153Z,69.60
2018-06-11T04:37:59.885Z,69.20
2018-06-11T04:40:28.674Z,68.90
2018-06-11T04:42:57.421Z,67.90
2018-06-11T04:45:26.179Z,66.50
2018-06-11T04:47:55.242Z,66.00
2018-06-11T04:50:24.017Z,66.00
2018-06-11T04:52:52.783Z,64.80
2018-06-11T04:55:21.598Z,63.90
2018-06-11T04:57:50.410Z,61.40
2018-06-11T05:00:19.168Z,62.10
2018-06-11T05:02:47.928Z,59.10
2018-06-11T05:05:16.685Z,59.50
2018-06-11T05:10:14.062Z,61.50
2018-06-11T05:17:39.741Z,61.30
2018-06-11T05:20:08.527Z,61.10
2018-06-11T05:22:37.270Z,58.50
2018-06-11T05:25:06.046Z,59.40
2018-06-11T05:27:34.861Z,58.30
2018-06-11T05:30:03.763Z,59.10
2018-06-11T05:32:32.661Z,58.30
2018-06-11T05:35:01.417Z,58.70
2018-06-11T05:37:30.185Z,57.60
2018-06-11T05:39:58.940Z,56.60
2018-06-11T05:42:27.701Z,56.00
2018-06-11T05:44:56.457Z,55.30
2018-06-11T05:47:25.230Z,56.30
2018-06-11T05:49:53.988Z,56.10
2018-06-11T05:52:22.745Z,55.90
2018-06-11T05:59:48.497Z,55.80
2018-06-11T06:04:45.736Z,55.20
2018-06-11T06:07:14.501Z,55.00
2018-06-11T06:09:43.250Z,55.20
2018-06-11T06:12:12.022Z,55.30
2018-06-11T06:14:40.808Z,55.40
2018-06-11T06:19:38.013Z,55.60
2018-06-11T06:22:06.757Z,55.30
2018-06-11T06:24:35.553Z,55.20
2018-06-11T06:27:04.514Z,55.40
2018-06-11T06:29:33.377Z,56.50
2018-06-11T06:32:02.133Z,55.50
2018-06-11T06:39:27.942Z,54.10
2018-06-11T06:41:56.653Z,54.00
2018-06-11T06:44:25.445Z,53.90
2018-06-11T06:46:54.237Z,55.00
2018-06-11T06:49:23.025Z,55.00
2018-06-11T06:51:51.781Z,55.20
2018-06-11T06:54:20.576Z,55.20
2018-06-11T06:56:49.340Z,55.10
2018-06-11T06:59:18.093Z,54.60
2018-06-11T07:01:46.872Z,54.80
2018-06-11T07:06:44.119Z,55.20
2018-06-11T07:09:12.884Z,55.20
2018-06-11T07:11:41.658Z,55.90
2018-06-11T07:14:10.590Z,55.60
2018-06-11T07:16:39.349Z,55.80
2018-06-11T07:19:08.185Z,55.70
2018-06-11T07:24:05.438Z,54.30
2018-06-11T07:26:34.257Z,54.20
2018-06-11T07:29:03.009Z,54.10
2018-06-11T07:31:31.765Z,54.80
2018-06-11T07:34:00.736Z,54.60
2018-06-11T07:36:29.498Z,54.10
2018-06-11T07:41:26.740Z,55.40
2018-06-11T07:43:55.497Z,54.40
2018-06-11T07:46:24.250Z,54.40
2018-06-11T07:48:52.985Z,54.40
2018-06-11T07:51:21.768Z,51.60
2018-06-11T07:53:50.533Z,51.80
2018-06-11T07:56:19.300Z,51.10
2018-06-11T07:58:48.048Z,50.80
2018-06-11T08:01:16.847Z,51.30
2018-06-11T08:03:45.624Z,50.70
2018-06-11T08:06:14.393Z,49.80
2018-06-11T08:08:43.173Z,48.80
2018-06-11T08:11:11.944Z,48.20
2018-06-11T08:13:40.815Z,48.30
2018-06-11T08:16:09.513Z,47.70
2018-06-11T08:18:38.268Z,47.40
2018-06-11T08:21:07.029Z,47.20
2018-06-11T08:23:35.776Z,47.40
2018-06-11T08:26:04.589Z,48.20
2018-06-11T08:28:33.341Z,49.10
2018-06-11T08:31:02.093Z,46.60
2018-06-11T08:33:30.914Z,47.00
2018-06-11T08:38:28.193Z,44.10
2018-06-11T08:43:25.446Z,45.60
2018-06-11T08:45:54.201Z,45.00
2018-06-11T08:48:22.967Z,46.70
2018-06-11T08:50:51.709Z,47.30
2018-06-11T08:53:20.490Z,48.40
2018-06-11T08:55:49.242Z,48.70
2018-06-11T08:58:17.997Z,49.30
2018-06-11T09:00:46.754Z,48.60
2018-06-11T09:03:15.552Z,48.60
2018-06-11T09:05:44.392Z,49.40
2018-06-11T09:08:13.201Z,49.30
2018-06-11T09:10:42.116Z,49.60
2018-06-11T09:13:10.919Z,47.20
2018-06-11T09:23:05.253Z,44.60
2018-06-11T09:28:02.521Z,43.80
2018-06-11T09:32:59.755Z,43.50
2018-06-11T09:35:28.516Z,43.60
2018-06-11T09:37:57.260Z,41.80
2018-06-11T09:42:54.533Z,42.20
2018-06-11T09:50:20.283Z,40.10
2018-06-11T09:55:17.489Z,39.80
2018-06-11T09:57:46.241Z,41.20
2018-06-11T10:02:49.301Z,41.40
2018-06-11T10:05:18.046Z,40.20
2018-06-11T10:07:46.796Z,39.60
2018-06-11T10:10:15.565Z,37.50
2018-06-11T10:12:44.500Z,36.40
2018-06-11T10:17:41.945Z,35.60
2018-06-11T10:20:10.696Z,35.20
2018-06-11T10:22:39.457Z,35.20
2018-06-11T10:25:08.198Z,35.30
2018-06-11T10:27:36.965Z,37.00
2018-06-11T10:30:05.724Z,35.40
2018-06-11T10:40:00.083Z,33.40
2018-06-11T10:42:28.825Z,34.40
2018-06-11T10:44:57.584Z,36.60
2018-06-11T10:47:26.413Z,36.80
2018-06-11T10:52:23.673Z,34.40
2018-06-11T10:54:52.434Z,32.60
2018-06-11T10:57:21.400Z,31.40
2018-06-11T10:59:50.152Z,31.00
2018-06-11T11:04:47.534Z,32.70
2018-06-11T11:07:16.315Z,30.00
2018-06-11T11:12:13.558Z,30.50
2018-06-11T11:14:42.314Z,31.00
2018-06-11T11:17:11.129Z,30.10
2018-06-11T11:19:39.981Z,29.40
2018-06-11T11:22:08.730Z,28.30
2018-06-11T11:32:03.771Z,29.20
2018-06-11T11:34:32.533Z,29.90
2018-06-11T11:37:01.297Z,29.80
2018-06-11T11:39:30.062Z,28.00
2018-06-11T11:41:58.809Z,27.60
2018-06-11T11:44:27.567Z,27.20
2018-06-11T11:46:56.318Z,26.70
2018-06-11T11:51:53.565Z,26.90
2018-06-11T11:54:22.378Z,27.60
2018-06-11T11:56:51.156Z,27.40
2018-06-11T12:01:48.399Z,27.60
2018-06-11T12:04:17.173Z,28.70
2018-06-11T12:06:46.073Z,29.80
2018-06-11T12:09:14.833Z,29.40
2018-06-11T12:11:43.573Z,26.70
2018-06-11T12:16:40.985Z,26.80
2018-06-11T12:19:09.762Z,26.70
2018-06-11T12:24:07.154Z,26.60
2018-06-11T12:26:35.893Z,25.80
2018-06-11T12:31:33.152Z,27.60
2018-06-11T12:34:01.921Z,27.00
2018-06-11T12:36:30.725Z,27.50
2018-06-11T12:38:59.493Z,26.10
2018-06-11T12:41:28.253Z,25.50
2018-06-11T12:43:57.075Z,26.90
2018-06-11T12:46:25.812Z,26.10
2018-06-11T12:48:54.581Z,26.00
2018-06-11T12:53:51.845Z,24.00
2018-06-11T12:58:49.100Z,23.00
2018-06-11T13:01:17.869Z,23.90
2018-06-11T13:03:46.637Z,23.30
2018-06-11T13:06:15.401Z,22.40
2018-06-11T13:08:44.153Z,21.70
2018-06-11T13:11:12.948Z,22.40
2018-06-11T13:13:41.685Z,23.20
2018-06-11T13:16:10.683Z,23.10
2018-06-11T13:18:39.404Z,23.10
2018-06-11T13:21:08.178Z,23.30
2018-06-11T13:23:36.946Z,25.10
2018-06-11T13:26:05.701Z,25.30
2018-06-11T13:28:34.450Z,23.90
2018-06-11T13:31:03.212Z,23.70
2018-06-11T13:33:32.008Z,22.50
2018-06-11T13:36:00.785Z,21.80
2018-06-11T13:38:29.529Z,22.30
2018-06-11T13:43:26.741Z,23.60
2018-06-11T13:45:55.509Z,23.80
2018-06-11T13:48:24.261Z,24.10
2018-06-11T13:50:53.029Z,25.30
2018-06-11T13:53:21.784Z,24.80
2018-06-11T13:55:50.553Z,24.20
2018-06-11T13:58:19.285Z,22.40
2018-06-11T14:00:48.048Z,22.20
2018-06-11T14:03:16.789Z,22.70
2018-06-11T14:05:45.581Z,23.40
2018-06-11T14:08:14.285Z,23.60
2018-06-11T14:10:43.042Z,23.50
2018-06-11T14:13:11.785Z,23.60
2018-06-11T14:15:40.537Z,24.70
2018-06-11T14:20:37.788Z,24.40
2018-06-11T14:23:06.545Z,25.00
2018-06-11T14:25:35.317Z,25.70
2018-06-11T14:28:04.101Z,25.60
2018-06-11T14:30:32.868Z,25.20
2018-06-11T14:33:01.685Z,25.20
2018-06-11T14:35:30.425Z,24.00
2018-06-11T14:37:59.202Z,22.90
2018-06-11T14:40:27.973Z,22.80
2018-06-11T14:42:56.901Z,23.50
2018-06-11T14:47:54.260Z,21.00
2018-06-11T14:50:23.043Z,21.80
2018-06-11T14:52:51.799Z,19.90
2018-06-11T14:55:20.729Z,21.30
2018-06-11T14:57:49.547Z,21.80
2018-06-11T15:02:46.825Z,22.70
2018-06-11T15:05:15.602Z,23.20
2018-06-11T15:07:44.357Z,23.10
2018-06-11T15:10:13.258Z,23.10
2018-06-11T15:12:42.263Z,20.00
2018-06-11T15:15:11.017Z,20.00
2018-06-11T15:17:39.821Z,20.50
2018-06-11T15:20:08.571Z,21.80
2018-06-11T15:22:37.405Z,23.80
2018-06-11T15:25:06.298Z,23.90
2018-06-11T15:27:35.091Z,23.10
2018-06-11T15:32:32.319Z,23.20
2018-06-11T15:35:01.065Z,24.00
2018-06-11T15:37:29.818Z,23.90
2018-06-11T15:39:58.646Z,24.70
2018-06-11T15:42:27.408Z,24.80
2018-06-11T15:44:56.170Z,23.80
2018-06-11T15:47:24.965Z,20.50
2018-06-11T15:49:53.721Z,21.30
2018-06-11T15:52:22.490Z,20.80
2018-06-11T15:54:51.247Z,21.30
2018-06-11T15:57:20.006Z,23.40
2018-06-11T15:59:48.785Z,23.80
2018-06-11T16:02:17.560Z,24.20
2018-06-11T16:04:46.285Z,23.70
2018-06-11T16:07:15.045Z,23.70
2018-06-11T16:09:43.794Z,22.90
2018-06-11T16:12:12.590Z,22.00
2018-06-11T16:14:41.336Z,21.60
2018-06-11T16:17:10.273Z,21.70
2018-06-11T16:19:39.005Z,21.60
2018-06-11T16:22:07.761Z,21.20
2018-06-11T16:24:36.505Z,21.10
2018-06-11T16:29:33.927Z,21.80
2018-06-11T16:32:02.664Z,21.90
2018-06-11T16:34:31.418Z,22.60
2018-06-11T16:37:00.250Z,23.40
2018-06-11T16:39:28.946Z,24.10
2018-06-11T16:44:26.244Z,25.40
2018-06-11T16:46:55.001Z,26.20
2018-06-11T16:51:52.205Z,26.60
2018-06-11T16:54:20.957Z,26.20
2018-06-11T16:59:18.393Z,23.70
2018-06-11T17:01:47.165Z,23.70
2018-06-11T17:04:15.904Z,24.50
2018-06-11T17:06:44.661Z,25.30
2018-06-11T17:09:13.408Z,26.80
2018-06-11T17:11:42.437Z,26.80
2018-06-11T17:14:11.249Z,26.50
2018-06-11T17:16:39.985Z,26.60
2018-06-11T17:19:08.749Z,26.60
2018-06-11T17:21:37.500Z,25.70
2018-06-11T17:24:06.457Z,26.40
2018-06-11T17:26:35.252Z,25.90
2018-06-11T17:29:04.190Z,25.90
2018-06-11T17:31:32.948Z,27.00
2018-06-11T17:34:03.805Z,26.50
2018-06-11T17:41:29.649Z,27.40
2018-06-11T17:43:58.400Z,28.10
2018-06-11T17:46:27.181Z,28.20
2018-06-11T17:48:55.937Z,27.70
2018-06-11T17:51:24.670Z,27.70
2018-06-11T17:53:53.413Z,28.40
2018-06-11T17:56:22.161Z,28.70
2018-06-11T17:58:50.937Z,29.90
2018-06-11T18:01:19.676Z,30.00
2018-06-11T18:03:48.506Z,31.30
2018-06-11T18:06:17.308Z,31.50
2018-06-11T18:08:46.022Z,31.70
2018-06-11T18:11:14.764Z,31.70
2018-06-11T18:13:44.397Z,32.10
2018-06-11T18:16:13.193Z,33.70
2018-06-11T18:18:41.977Z,33.20
2018-06-11T18:21:10.708Z,32.50
2018-06-11T18:23:39.466Z,32.80
2018-06-11T18:26:08.281Z,34.40
2018-06-11T18:28:37.084Z,35.10
2018-06-11T18:31:05.845Z,36.40
2018-06-11T18:33:34.648Z,37.00
2018-06-11T18:36:03.529Z,37.70
2018-06-11T18:38:32.289Z,38.80
2018-06-11T18:41:01.041Z,39.50
2018-06-11T18:43:29.782Z,39.80
2018-06-11T18:45:58.589Z,40.30
2018-06-11T18:48:27.345Z,41.80
2018-06-11T18:50:56.148Z,42.40
2018-06-11T18:53:24.897Z,42.50
2018-06-11T18:55:53.631Z,40.40
2018-06-11T18:58:22.390Z,38.20
2018-06-11T19:00:52.733Z,36.20
2018-06-11T19:03:21.529Z,36.80
2018-06-11T19:05:50.792Z,36.60
2018-06-11T19:08:19.682Z,36.70
2018-06-11T19:10:48.461Z,36.70
2018-06-11T19:13:21.145Z,36.60
2018-06-11T19:15:49.882Z,37.30
2018-06-11T19:18:18.639Z,36.80
2018-06-11T19:20:47.421Z,37.30
2018-06-11T19:23:16.184Z,38.30
2018-06-11T19:25:44.921Z,38.20
2018-06-11T19:28:13.712Z,39.20
2018-06-11T19:30:42.455Z,39.10
2018-06-11T19:33:11.279Z,40.50
2018-06-11T19:35:39.974Z,42.20
2018-06-11T19:38:08.733Z,44.40
2018-06-11T19:40:37.524Z,44.90
2018-06-11T19:43:06.256Z,45.30
2018-06-11T19:45:35.017Z,45.00
2018-06-11T19:48:03.843Z,45.90
2018-06-11T19:50:32.673Z,45.60
2018-06-11T19:53:01.482Z,45.60
2018-06-11T19:55:30.536Z,45.00
2018-06-11T19:57:59.321Z,43.80
2018-06-11T20:00:28.065Z,44.90
2018-06-11T20:02:57.068Z,43.90
2018-06-11T20:05:26.313Z,44.30
2018-06-11T20:07:55.141Z,44.50
2018-06-11T20:10:23.989Z,44.70
2018-06-11T20:12:52.775Z,43.20
2018-06-11T20:15:21.542Z,42.70
2018-06-11T20:17:50.300Z,44.10
2018-06-11T20:20:19.085Z,44.00
2018-06-11T20:22:47.849Z,44.50
2018-06-11T20:25:16.588Z,43.70
2018-06-11T20:27:45.345Z,44.30
2018-06-11T20:30:14.110Z,43.50
2018-06-11T20:32:42.933Z,43.40
2018-06-11T20:35:11.684Z,43.00
2018-06-11T20:37:40.509Z,43.50
2018-06-11T20:40:09.206Z,42.20
2018-06-11T20:42:37.968Z,42.70
2018-06-11T20:45:06.743Z,43.20
2018-06-11T20:47:35.515Z,44.30
2018-06-11T20:50:04.274Z,43.90
2018-06-11T20:52:33.103Z,43.30
2018-06-11T20:55:01.930Z,43.40
2018-06-11T20:57:30.696Z,43.90
2018-06-11T20:59:59.477Z,43.60
2018-06-11T21:02:28.213Z,44.00
2018-06-11T21:04:56.985Z,44.20
2018-06-11T21:07:25.721Z,43.90
2018-06-11T21:09:54.490Z,44.60
2018-06-11T21:12:23.280Z,44.70
2018-06-11T21:14:52.051Z,45.00
2018-06-11T21:17:20.809Z,45.20
2018-06-11T21:19:49.597Z,45.20
2018-06-11T21:22:18.455Z,45.60
2018-06-11T21:24:47.311Z,46.60
2018-06-11T21:27:16.295Z,46.40
2018-06-11T21:29:45.039Z,46.70
2018-06-11T21:32:13.844Z,46.30
2018-06-11T21:34:42.638Z,46.10
2018-06-11T21:37:11.498Z,46.30
2018-06-11T21:39:40.279Z,47.00
2018-06-11T21:42:09.099Z,46.70
2018-06-11T21:44:37.873Z,47.70
2018-06-11T21:47:06.649Z,47.70
2018-06-11T21:49:35.413Z,48.30
2018-06-11T21:52:04.193Z,48.20
2018-06-11T21:54:33.017Z,48.20
2018-06-11T21:57:01.788Z,48.50
2018-06-11T21:59:30.546Z,48.70
2018-06-11T22:04:27.796Z,48.50
2018-06-11T22:06:56.587Z,48.30
2018-06-11T22:09:25.381Z,49.00
2018-06-11T22:11:54.273Z,49.00
2018-06-11T22:14:23.025Z,49.70
2018-06-11T22:16:51.817Z,49.40
2018-06-11T22:19:20.566Z,49.40
2018-06-11T22:21:49.324Z,50.10
2018-06-11T22:24:18.087Z,49.90
2018-06-11T22:26:46.848Z,50.10
2018-06-11T22:29:15.601Z,50.10
2018-06-11T22:34:12.861Z,49.40
2018-06-11T22:36:41.621Z,50.40
2018-06-11T22:39:10.381Z,51.10
2018-06-11T22:41:39.140Z,50.10
2018-06-11T22:44:07.898Z,49.70
2018-06-11T22:46:36.672Z,49.50
2018-06-11T22:49:05.460Z,50.00
2018-06-11T22:51:34.229Z,49.40
2018-06-11T22:54:03.141Z,49.20
2018-06-11T22:56:31.941Z,50.20
2018-06-11T22:59:00.694Z,49.70
2018-06-11T23:01:29.453Z,49.40
2018-06-11T23:03:58.205Z,49.70
2018-06-11T23:06:26.955Z,50.10
2018-06-11T23:08:55.741Z,50.80
2018-06-11T23:11:24.504Z,50.60
2018-06-11T23:13:53.273Z,49.80
2018-06-11T23:18:50.547Z,50.70
2018-06-11T23:23:47.821Z,51.40
2018-06-11T23:28:45.060Z,51.30
2018-06-11T23:31:13.853Z,52.10
2018-06-11T23:33:42.602Z,52.00
2018-06-11T23:36:11.369Z,51.90
2018-06-11T23:38:40.118Z,52.00
2018-06-11T23:41:08.913Z,52.00
2018-06-11T23:43:37.666Z,52.40
2018-06-11T23:46:06.461Z,52.80
2018-06-11T23:48:35.231Z,52.80
2018-06-11T23:51:03.982Z,52.60
2018-06-11T23:53:32.801Z,52.10
2018-06-11T23:56:01.556Z,53.10
